createdAt,value
2018-10-19T00:03:48.606Z,6.80
2018-10-19T00:08:52.631Z,7.20
2018-10-19T00:13:56.690Z,5.37
2018-10-19T00:19:00.580Z,6.27
2018-10-19T00:24:25.303Z,4.63
2018-10-19T00:29:29.703Z,5.80
2018-10-19T00:34:33.619Z,9.37
2018-10-19T00:39:37.612Z,7.07
2018-10-19T00:44:41.609Z,7.13
2018-10-19T00:49:48.824Z,7.83
2018-10-19T00:54:52.737Z,9.57
2018-10-19T00:59:56.662Z,6.00
2018-10-19T01:05:00.536Z,6.70
2018-10-19T01:10:04.580Z,8.33
2018-10-19T01:15:08.536Z,7.00
2018-10-19T01:20:12.368Z,6.33
2018-10-19T01:25:16.332Z,8.37
2018-10-19T01:30:20.416Z,9.93
2018-10-19T01:35:24.392Z,7.93
2018-10-19T01:40:28.298Z,9.60
2018-10-19T01:45:32.206Z,9.00
2018-10-19T01:50:36.172Z,7.13
2018-10-19T01:55:40.078Z,8.77
2018-10-19T02:00:44.053Z,5.80
2018-10-19T02:05:47.978Z,8.13
2018-10-19T02:10:51.885Z,10.80
2018-10-19T02:15:55.820Z,10.47
2018-10-19T02:20:59.805Z,9.97
2018-10-19T02:26:03.956Z,10.37
2018-10-19T02:31:07.968Z,11.13
2018-10-19T02:36:11.869Z,7.20
2018-10-19T02:41:15.896Z,10.73
2018-10-19T02:46:19.739Z,9.47
2018-10-19T02:51:23.645Z,11.07
2018-10-19T02:56:27.584Z,9.90
2018-10-19T03:01:31.543Z,10.77
2018-10-19T03:06:35.495Z,9.97
2018-10-19T03:11:39.774Z,8.37
2018-10-19T03:16:43.677Z,9.83
2018-10-19T03:22:04.146Z,12.53
2018-10-19T03:27:08.669Z,10.10
2018-10-19T03:32:12.701Z,10.10
2018-10-19T03:37:16.758Z,10.57
2018-10-19T03:42:20.795Z,9.10
2018-10-19T03:47:24.861Z,10.13
2018-10-19T03:52:29.166Z,11.43
2018-10-19T03:57:33.149Z,13.00
2018-10-19T04:02:37.144Z,13.93
2018-10-19T04:07:41.091Z,13.43
2018-10-19T04:12:46.518Z,11.43
2018-10-19T04:17:50.351Z,10.37
2018-10-19T04:23:09.505Z,10.50
2018-10-19T04:28:13.449Z,13.00
2018-10-19T04:33:19.687Z,12.27
2018-10-19T04:38:23.691Z,9.93
2018-10-19T04:43:28.675Z,7.57
2018-10-19T04:48:32.617Z,11.50
2018-10-19T04:53:40.186Z,8.87
2018-10-19T04:58:44.217Z,9.30
2018-10-19T05:03:48.074Z,8.10
2018-10-19T05:08:51.998Z,11.30
2018-10-19T05:13:56.003Z,8.97
2018-10-19T05:18:59.879Z,6.10
2018-10-19T05:24:03.950Z,10.87
2018-10-19T05:29:07.902Z,4.97
2018-10-19T05:34:11.758Z,9.17
2018-10-19T05:39:15.781Z,6.20
2018-10-19T05:44:19.725Z,7.33
2018-10-19T05:49:23.613Z,5.53
2018-10-19T05:54:27.566Z,6.77
2018-10-19T05:59:39.394Z,5.37
2018-10-19T06:04:43.385Z,12.30
2018-10-19T06:09:47.279Z,5.60
2018-10-19T06:14:51.165Z,7.50
2018-10-19T06:19:55.383Z,5.40
2018-10-19T06:25:00.019Z,11.83
2018-10-19T06:30:04.165Z,7.70
2018-10-19T06:35:08.534Z,10.07
2018-10-19T06:40:12.739Z,5.33
2018-10-19T06:45:16.878Z,7.90
2018-10-19T06:50:21.055Z,5.80
2018-10-19T06:55:26.491Z,6.97
2018-10-19T07:00:30.436Z,5.37
2018-10-19T07:05:34.387Z,13.33
2018-10-19T07:10:38.491Z,12.53
2018-10-19T07:15:42.347Z,11.40
2018-10-19T07:20:46.289Z,8.87
2018-10-19T07:25:50.229Z,12.07
2018-10-19T07:30:54.161Z,11.40
2018-10-19T07:36:06.635Z,11.03
2018-10-19T07:41:10.676Z,6.13
2018-10-19T07:46:14.772Z,13.47
2018-10-19T07:51:18.958Z,8.87
2018-10-19T07:56:25.741Z,17.30
2018-10-19T08:01:31.378Z,8.60
2018-10-19T08:06:35.890Z,8.40
2018-10-19T08:11:40.701Z,10.57
2018-10-19T08:16:45.110Z,16.50
2018-10-19T08:21:50.162Z,18.17
2018-10-19T08:26:59.127Z,14.57
2018-10-19T08:32:03.138Z,16.17
2018-10-19T08:37:08.093Z,12.40
2018-10-19T08:42:12.547Z,17.83
2018-10-19T08:47:17.827Z,22.33
2018-10-19T08:52:22.439Z,12.73
2018-10-19T08:57:26.440Z,19.23
2018-10-19T09:02:32.809Z,17.20
2018-10-19T09:07:37.173Z,16.53
2018-10-19T09:12:43.008Z,25.70
2018-10-19T09:17:47.339Z,20.47
2018-10-19T09:22:51.176Z,21.50
2018-10-19T09:27:59.013Z,17.47
2018-10-19T09:33:03.000Z,18.70
2018-10-19T09:38:08.371Z,15.97
2018-10-19T09:43:12.942Z,19.60
2018-10-19T09:48:18.089Z,21.87
2018-10-19T09:53:22.926Z,18.67
2018-10-19T09:58:27.462Z,11.70
2018-10-19T10:03:32.828Z,16.20
2018-10-19T10:08:37.309Z,12.80
2018-10-19T10:13:42.181Z,21.37
2018-10-19T10:18:46.702Z,19.73
2018-10-19T10:23:51.277Z,10.27
2018-10-19T10:28:55.521Z,18.60
2018-10-19T10:33:59.906Z,13.03
2018-10-19T10:39:05.836Z,15.47
2018-10-19T10:44:10.270Z,12.00
2018-10-19T10:49:15.630Z,9.33
2018-10-19T10:54:20.235Z,11.17
2018-10-19T10:59:25.308Z,8.20
2018-10-19T11:04:30.642Z,18.13
2018-10-19T11:09:35.515Z,9.27
2018-10-19T11:14:39.432Z,12.20
2018-10-19T11:19:44.155Z,11.87
2018-10-19T11:24:48.549Z,14.60
2018-10-19T11:29:52.471Z,10.47
2018-10-19T11:34:56.540Z,19.00
2018-10-19T11:40:13.075Z,9.67
2018-10-19T11:45:16.883Z,19.00
2018-10-19T11:50:21.866Z,12.03
2018-10-19T11:55:25.794Z,20.47
2018-10-19T12:00:29.747Z,9.60
2018-10-19T12:05:33.863Z,11.70
2018-10-19T12:10:37.901Z,18.33
2018-10-19T12:15:41.816Z,13.27
2018-10-19T12:20:45.778Z,17.77
2018-10-19T12:25:49.746Z,11.97
2018-10-19T12:30:53.683Z,16.30
2018-10-19T12:35:57.510Z,11.60
2018-10-19T12:41:01.536Z,16.33
2018-10-19T12:46:36.871Z,14.60
2018-10-19T12:51:40.883Z,14.37
2018-10-19T12:56:44.937Z,11.80
2018-10-19T13:01:49.262Z,14.27
2018-10-19T13:06:53.353Z,15.30
2018-10-19T13:11:57.340Z,13.40
2018-10-19T13:17:01.326Z,12.87
2018-10-19T13:22:05.301Z,19.87
2018-10-19T13:27:09.384Z,11.47
2018-10-19T13:32:13.304Z,13.77
2018-10-19T13:37:17.397Z,10.87
2018-10-19T13:42:21.269Z,15.27
2018-10-19T13:47:25.173Z,26.27
2018-10-19T13:52:29.200Z,21.37
2018-10-19T13:57:35.917Z,20.83
2018-10-19T14:02:41.287Z,15.73
2018-10-19T14:07:45.258Z,26.00
2018-10-19T14:12:49.218Z,22.10
2018-10-19T14:17:53.127Z,10.70
2018-10-19T14:22:57.125Z,14.93
2018-10-19T14:28:01.173Z,21.17
2018-10-19T14:33:09.627Z,23.47
2018-10-19T14:38:15.889Z,24.33
2018-10-19T14:43:19.902Z,23.47
2018-10-19T14:48:23.865Z,21.10
2018-10-19T14:53:29.627Z,24.27
2018-10-19T14:58:33.713Z,27.50
2018-10-19T15:03:37.698Z,21.07
2018-10-19T15:08:41.820Z,24.47
2018-10-19T15:13:45.811Z,17.60
2018-10-19T15:18:49.953Z,20.30
2018-10-19T15:24:18.093Z,19.23
2018-10-19T15:29:22.073Z,19.93
2018-10-19T15:34:25.974Z,25.10
2018-10-19T15:39:30.340Z,20.43
2018-10-19T15:44:34.685Z,18.37
2018-10-19T15:49:38.712Z,16.87
2018-10-19T15:54:42.608Z,15.30
2018-10-19T15:59:46.456Z,16.43
2018-10-19T16:04:50.645Z,14.83
2018-10-19T16:09:55.282Z,15.27
2018-10-19T16:14:59.206Z,13.33
2018-10-19T16:20:03.128Z,13.93
2018-10-19T16:25:07.662Z,14.50
2018-10-19T16:30:12.014Z,13.43
2018-10-19T16:35:15.900Z,12.27
2018-10-19T16:40:19.933Z,11.73
2018-10-19T16:45:24.084Z,12.37
2018-10-19T16:50:28.117Z,14.13
2018-10-19T16:55:32.103Z,11.50
2018-10-19T17:00:36.223Z,10.07
2018-10-19T17:05:41.730Z,9.53
2018-10-19T17:10:45.825Z,9.10
2018-10-19T17:15:49.889Z,10.63
2018-10-19T17:20:53.939Z,9.70
2018-10-19T17:25:58.078Z,9.00
2018-10-19T17:31:03.909Z,8.47
2018-10-19T17:36:08.021Z,8.43
2018-10-19T17:41:12.193Z,8.20
2018-10-19T17:46:16.436Z,8.50
2018-10-19T17:51:20.515Z,8.87
2018-10-19T17:56:24.510Z,8.37
2018-10-19T18:01:28.596Z,10.43
2018-10-19T18:06:32.715Z,9.80
2018-10-19T18:11:36.814Z,9.87
2018-10-19T18:16:40.786Z,9.53
2018-10-19T18:21:45.088Z,9.90
2018-10-19T18:26:49.554Z,9.07
2018-10-19T18:31:53.607Z,10.33
2018-10-19T18:37:18.400Z,10.27
2018-10-19T18:42:22.453Z,9.57
2018-10-19T18:47:26.397Z,8.57
2018-10-19T18:52:30.303Z,8.77
2018-10-19T18:57:34.339Z,7.20
2018-10-19T19:02:38.333Z,7.47
2018-10-19T19:07:42.213Z,7.63
2018-10-19T19:12:46.204Z,8.03
2018-10-19T19:17:50.219Z,9.57
2018-10-19T19:22:54.980Z,10.73
2018-10-19T19:27:59.588Z,9.03
2018-10-19T19:33:08.788Z,8.10
2018-10-19T19:38:12.733Z,7.23
2018-10-19T19:43:16.585Z,9.80
2018-10-19T19:48:25.687Z,6.73
2018-10-19T19:53:30.114Z,5.90
2018-10-19T19:58:34.047Z,5.30
2018-10-19T20:03:38.178Z,7.23
2018-10-19T20:08:42.237Z,7.93
2018-10-19T20:13:46.264Z,7.43
2018-10-19T20:18:50.348Z,7.63
2018-10-19T20:23:53.986Z,6.30
2018-10-19T20:28:58.118Z,5.30
2018-10-19T20:34:02.133Z,6.67
2018-10-19T20:39:08.231Z,8.13
2018-10-19T20:44:12.190Z,6.90
2018-10-19T20:49:39.163Z,6.47
2018-10-19T20:54:43.274Z,4.90
2018-10-19T20:59:47.174Z,6.63
2018-10-19T21:04:51.241Z,5.70
2018-10-19T21:09:55.158Z,4.87
2018-10-19T21:14:59.091Z,5.63
2018-10-19T21:20:03.131Z,6.27
2018-10-19T21:25:08.079Z,5.40
2018-10-19T21:30:13.070Z,5.87
2018-10-19T21:35:17.062Z,5.20
2018-10-19T21:40:20.968Z,5.57
2018-10-19T21:45:24.931Z,5.30
2018-10-19T21:50:28.819Z,5.50
2018-10-19T21:55:32.732Z,5.40
2018-10-19T22:00:36.674Z,5.60
2018-10-19T22:05:40.519Z,5.50
2018-10-19T22:10:44.638Z,5.70
2018-10-19T22:15:48.605Z,5.43
2018-10-19T22:20:52.578Z,5.87
2018-10-19T22:25:57.510Z,5.73
2018-10-19T22:31:02.323Z,6.20
2018-10-19T22:36:06.472Z,5.17
2018-10-19T22:41:10.650Z,4.70
2018-10-19T22:46:14.668Z,4.83
2018-10-19T22:51:18.730Z,5.33
2018-10-19T22:56:22.656Z,4.80
2018-10-19T23:01:30.321Z,4.80
2018-10-19T23:06:34.408Z,5.00
2018-10-19T23:11:38.386Z,5.03
2018-10-19T23:16:42.508Z,5.47
2018-10-19T23:21:46.874Z,5.70
2018-10-19T23:26:50.932Z,5.20
2018-10-19T23:31:54.855Z,5.03
2018-10-19T23:36:58.949Z,5.50
2018-10-19T23:42:02.921Z,5.37
2018-10-19T23:47:06.952Z,4.80
2018-10-19T23:52:11.092Z,5.00
2018-10-19T23:57:15.026Z,5.37
